Time;durP1;ratioP1;P1;durP2;ratioP2;P2;SDS_P1;SDS_P2;PMS_P1;PMS_P2;Temp;Humidity;BMP_temperature;BMP_pressure;BME280_temperature;BME280_humidity;BME280_pressure;Samples;Min_cycle;Max_cycle;Signal;HPM_P1;HPM_P2
2022/12/01 00:02:12;;;;;;;65.03;27.25;;;;;;;-8.71;67.48;102487.22;5040563;28;20021;-55
2022/12/01 00:04:38;;;;;;;60.80;26.65;;;;;;;-8.85;67.19;102471.94;5041865;28;20029;-52
2022/12/01 00:07:03;;;;;;;60.35;27.70;;;;;;;-9.00;67.46;102447.91;5052590;28;20025;-51
2022/12/01 00:12:13;;;;;;;61.28;26.67;;;;;;;-8.75;67.39;102490.50;5032703;28;20029;-50
2022/12/01 00:14:38;;;;;;;58.05;25.80;;;;;;;-8.75;67.32;102496.59;5033266;28;20036;-53
2022/12/01 00:17:04;;;;;;;68.15;27.48;;;;;;;-8.75;67.33;102486.22;5031840;28;20033;-49
2022/12/01 00:19:29;;;;;;;60.60;26.92;;;;;;;-8.78;67.20;102495.56;5032781;28;20487;-54
2022/12/01 00:21:55;;;;;;;58.17;25.67;;;;;;;-8.76;67.53;102493.91;5045555;28;20055;-55
2022/12/01 00:24:23;;;;;;;62.30;26.90;;;;;;;-8.78;67.36;102495.56;5042293;28;20049;-56
2022/12/01 00:26:49;;;;;;;58.63;26.80;;;;;;;-8.76;67.00;102483.53;5032665;28;20029;-51
2022/12/01 00:29:14;;;;;;;61.58;26.83;;;;;;;-8.77;67.03;102487.84;5032610;28;20059;-51
2022/12/01 00:31:40;;;;;;;69.72;27.88;;;;;;;-8.79;67.31;102492.09;5033795;28;20407;-51
2022/12/01 00:34:05;;;;;;;62.58;28.33;;;;;;;-8.78;67.08;102490.38;5052219;28;20041;-52
2022/12/01 00:36:31;;;;;;;65.95;27.63;;;;;;;-8.81;67.45;102489.44;5052436;28;20336;-52
2022/12/01 00:38:57;;;;;;;60.33;26.83;;;;;;;-8.81;66.93;102486.84;5048342;28;20029;-51
2022/12/01 00:41:25;;;;;;;62.33;27.50;;;;;;;-8.95;67.11;102467.16;5032729;28;20124;-50
2022/12/01 00:43:51;;;;;;;61.80;27.10;;;;;;;-8.77;67.62;102487.84;5032349;28;20029;-51
2022/12/01 00:46:17;;;;;;;57.47;26.00;;;;;;;-8.82;66.80;102477.28;5032398;28;20049;-51
2022/12/01 00:48:42;;;;;;;61.13;26.52;;;;;;;-8.80;67.15;102495.50;5032450;28;20041;-53
2022/12/01 00:51:08;;;;;;;65.63;27.23;;;;;;;-8.83;67.26;102480.69;5032316;28;20029;-50
2022/12/01 00:53:33;;;;;;;64.50;27.40;;;;;;;-8.73;66.91;102483.66;5033111;28;20032;-49
2022/12/01 00:55:59;;;;;;;65.95;28.30;;;;;;;-8.84;66.83;102465.94;5037131;28;20028;-52
2022/12/01 00:58:25;;;;;;;63.15;27.55;;;;;;;-8.81;66.72;102476.44;5049572;28;20047;-55
2022/12/01 01:00:58;;;;;;;65.32;27.63;;;;;;;-8.78;66.87;102485.19;5052144;28;20466;-49
2022/12/01 01:03:24;;;;;;;68.45;26.73;;;;;;;-8.91;66.99;102469.09;5052120;28;20037;-51
2022/12/01 01:05:49;;;;;;;61.13;26.42;;;;;;;-9.07;66.59;102438.97;5031200;28;20033;-53
2022/12/01 01:08:15;;;;;;;63.03;27.58;;;;;;;-8.85;66.75;102474.53;5032059;28;20087;-54
2022/12/01 01:10:42;;;;;;;63.70;26.20;;;;;;;-8.89;66.81;102476.94;5031315;28;20117;-53
2022/12/01 01:13:08;;;;;;;62.33;27.45;;;;;;;-8.91;66.82;102482.09;5032406;28;20120;-49
2022/12/01 01:15:34;;;;;;;59.28;26.38;;;;;;;-8.91;66.74;102488.97;5046163;28;20083;-51
2022/12/01 01:18:00;;;;;;;64.05;25.73;;;;;;;-8.86;66.87;102484.84;5046169;28;20451;-50
2022/12/01 01:20:26;;;;;;;60.80;26.88;;;;;;;-8.92;66.59;102477.72;5045591;28;20108;-51
2022/12/01 01:22:51;;;;;;;70.82;27.70;;;;;;;-8.93;67.23;102478.50;5052328;28;20435;-50
2022/12/01 01:25:17;;;;;;;61.08;26.05;;;;;;;-8.91;67.09;102489.88;5051855;28;20044;-53
2022/12/01 01:27:42;;;;;;;66.72;25.85;;;;;;;-8.84;66.72;102481.50;5051728;28;20060;-54
2022/12/01 01:30:08;;;;;;;62.13;27.50;;;;;;;-8.85;66.78;102479.75;5051257;28;20032;-54
2022/12/01 01:32:33;;;;;;;60.95;26.10;;;;;;;-8.89;66.57;102472.66;5046720;28;20359;-55
2022/12/01 01:34:59;;;;;;;61.45;27.25;;;;;;;-8.90;66.47;102475.16;5031670;28;20368;-58
2022/12/01 01:37:24;;;;;;;55.90;25.65;;;;;;;-8.91;66.79;102468.19;5032218;28;20440;-60
2022/12/01 01:39:50;;;;;;;63.63;25.38;;;;;;;-9.12;66.74;102432.72;5031991;28;20051;-53
2022/12/01 01:42:19;;;;;;;58.10;25.35;;;;;;;-9.13;66.67;102430.94;5032176;28;20064;-55
2022/12/01 01:44:53;;;;;;;58.38;25.33;;;;;;;-8.93;66.53;102465.53;5033028;28;20044;-56
2022/12/01 01:47:39;;;;;;;58.78;24.92;;;;;;;-8.94;66.74;102463.75;5031952;28;20484;-54
2022/12/01 01:50:10;;;;;;;55.70;23.95;;;;;;;-8.94;67.17;102464.66;5032135;28;20048;-51
2022/12/01 01:52:41;;;;;;;57.25;24.30;;;;;;;-8.97;66.93;102461.03;5032295;28;20060;-53
2022/12/01 01:55:07;;;;;;;59.90;23.95;;;;;;;-8.97;66.80;102474.91;5032052;28;20024;-57
2022/12/01 01:57:34;;;;;;;65.38;26.77;;;;;;;-9.12;66.35;102444.00;5040591;28;20025;-54
2022/12/01 02:00:08;;;;;;;59.63;24.95;;;;;;;-8.96;66.44;102471.50;5050525;28;20033;-59
2022/12/01 02:02:39;;;;;;;56.55;24.67;;;;;;;-8.95;66.86;102464.56;5035527;28;20026;-52
2022/12/01 02:05:11;;;;;;;56.70;24.63;;;;;;;-9.12;66.89;102436.22;5034885;28;20089;-55
2022/12/01 02:07:39;;;;;;;66.05;25.10;;;;;;;-8.99;66.73;102463.56;5035111;28;20022;-52
2022/12/01 02:10:11;;;;;;;55.75;24.83;;;;;;;-8.96;66.66;102470.59;5045935;28;20375;-53
2022/12/01 02:12:49;;;;;;;58.22;24.33;;;;;;;-8.97;66.53;102480.09;5054679;28;20033;-50
2022/12/01 02:15:37;;;;;;;;;;;;;;;-8.77;66.71;102476.56;5054818;28;20032;-53
2022/12/01 02:18:18;;;;;;;54.55;23.20;;;;;;;-8.85;66.31;102479.75;5042307;28;20415;-53
2022/12/01 02:21:16;;;;;;;51.25;18.80;;;;;;;-8.83;66.22;102482.38;5034939;28;20064;-53
2022/12/01 02:24:03;;;;;;;56.13;23.30;;;;;;;-8.87;66.00;102478.78;5034727;28;20029;-53
2022/12/01 02:26:53;;;;;;;59.20;24.95;;;;;;;-8.95;66.06;102472.38;5035646;28;20044;-53
2022/12/01 02:29:47;;;;;;;59.95;25.02;;;;;;;-9.03;66.32;102473.75;5054634;28;20064;-55
2022/12/01 02:32:21;;;;;;;61.85;24.80;;;;;;;-9.04;66.58;102482.38;5052722;28;20112;-53
2022/12/01 02:35:10;;;;;;;56.33;23.60;;;;;;;-9.07;66.29;102477.03;5034648;28;20046;-52
2022/12/01 02:37:55;;;;;;;60.58;23.67;;;;;;;-9.03;66.65;102468.56;5034348;28;20042;-56
2022/12/01 02:40:27;;;;;;;57.38;22.73;;;;;;;-9.11;66.61;102461.34;5050183;28;20041;-51
2022/12/01 02:43:14;;;;;;;60.72;23.98;;;;;;;-9.07;66.39;102470.13;5034426;28;20029;-54
2022/12/01 02:45:52;;;;;;;61.13;25.08;;;;;;;-9.06;66.33;102468.44;5049732;28;20489;-52
2022/12/01 02:48:25;;;;;;;60.85;25.40;;;;;;;-9.09;66.37;102475.28;5054187;28;20348;-52
2022/12/01 02:50:53;;;;;;;57.42;25.85;;;;;;;-9.09;66.10;102472.69;5054589;28;20052;-49
2022/12/01 02:53:19;;;;;;;63.10;26.17;;;;;;;-9.10;66.24;102472.59;5054287;28;20041;-49
2022/12/01 02:55:51;;;;;;;61.30;25.55;;;;;;;-9.38;66.17;102433.38;5054216;28;20029;-53
2022/12/01 02:58:16;;;;;;;58.55;24.55;;;;;;;-9.16;66.19;102468.06;5054379;28;20036;-56
2022/12/01 03:01:05;;;;;;;63.20;25.60;;;;;;;-9.16;66.56;102460.25;5053627;28;20025;-52
2022/12/01 03:04:01;;;;;;;57.80;24.10;;;;;;;-9.12;66.63;102458.66;5040252;28;20479;-53
2022/12/01 03:06:58;;;;;;;54.25;24.17;;;;;;;-9.15;66.57;102463.72;5033244;28;20034;-53
2022/12/01 03:10:01;;;;;;;51.67;22.58;;;;;;;-9.15;66.46;102469.81;5048874;28;20059;-55
2022/12/01 03:12:49;;;;;;;55.58;23.83;;;;;;;-9.25;66.55;102454.66;5054102;28;20051;-52
2022/12/01 03:15:51;;;;;;;56.00;21.60;;;;;;;-9.11;66.71;102463.03;5044759;28;20452;-58
2022/12/01 03:18:21;;;;;;;54.42;24.25;;;;;;;-9.11;66.31;102461.34;5033086;28;20120;-53
2022/12/01 03:20:56;;;;;;;56.92;24.15;;;;;;;-9.13;66.25;102463.00;5038419;28;20025;-53
2022/12/01 03:23:23;;;;;;;;;;;;;;;-8.88;66.39;102457.94;5053680;28;20524;-53
2022/12/01 03:25:54;;;;;;;52.70;22.35;;;;;;;-9.01;65.53;102459.13;5053554;28;19913;-48
2022/12/01 03:28:27;;;;;;;63.08;23.77;;;;;;;-9.07;65.88;102453.69;5053836;28;20128;-52
2022/12/01 03:30:57;;;;;;;57.03;24.70;;;;;;;-9.11;66.03;102453.56;5053323;28;20056;-53
2022/12/01 03:33:30;;;;;;;55.42;24.50;;;;;;;-9.19;66.26;102441.94;5038871;28;20041;-50
2022/12/01 03:36:04;;;;;;;56.63;24.00;;;;;;;-9.18;66.14;102441.13;5033788;28;20033;-53
2022/12/01 03:38:32;;;;;;;63.60;24.48;;;;;;;-9.16;66.08;102446.38;5033846;28;20033;-53
2022/12/01 03:41:05;;;;;;;55.88;23.10;;;;;;;-9.16;66.13;102447.28;5053303;28;20041;-55
2022/12/01 03:43:33;;;;;;;57.67;24.15;;;;;;;-9.16;66.41;102449.88;5053527;28;20040;-55
2022/12/01 03:46:02;;;;;;;58.45;23.63;;;;;;;-9.19;66.38;102446.25;5053139;28;20202;-53
2022/12/01 03:48:29;;;;;;;55.80;23.02;;;;;;;-9.18;66.38;102448.91;5053179;28;20456;-53
2022/12/01 03:51:16;;;;;;;57.65;24.25;;;;;;;-9.13;66.43;102457.81;5037292;28;20037;-52
2022/12/01 03:53:58;;;;;;;56.55;24.63;;;;;;;-9.10;66.16;102455.31;5033041;28;20350;-53
2022/12/01 03:56:29;;;;;;;52.80;23.58;;;;;;;-9.06;66.15;102458.91;5040079;28;20029;-50
2022/12/01 03:58:58;;;;;;;56.67;23.25;;;;;;;-9.07;65.84;102461.47;5052116;28;20048;-53
2022/12/01 04:01:26;;;;;;;56.00;24.17;;;;;;;-9.08;65.98;102455.38;5052732;28;20101;-53
2022/12/01 04:03:51;;;;;;;58.92;24.45;;;;;;;-9.07;66.31;102457.16;5051845;28;20479;-52
2022/12/01 04:06:17;;;;;;;62.40;25.38;;;;;;;-9.09;65.97;102454.50;5053206;28;20079;-55
2022/12/01 04:08:43;;;;;;;58.75;23.40;;;;;;;-9.13;65.81;102442.22;5033064;28;20025;-51
2022/12/01 04:13:52;;;;;;;57.75;24.95;;;;;;;-9.06;65.75;102463.25;5033302;28;20110;-51
2022/12/01 04:16:18;;;;;;;62.05;23.55;;;;;;;-9.09;65.96;102464.88;5052831;28;20121;-52
2022/12/01 04:18:43;;;;;;;60.22;24.85;;;;;;;-8.99;65.80;102465.28;5052195;28;20523;-51
2022/12/01 04:21:08;;;;;;;58.08;23.95;;;;;;;-9.01;65.62;102451.34;5042521;28;20035;-54
2022/12/01 04:26:17;;;;;;;57.72;23.98;;;;;;;-9.02;65.59;102458.25;5032616;28;20456;-55
2022/12/01 04:28:43;;;;;;;59.80;23.50;;;;;;;-9.03;65.81;102453.00;5032481;28;20032;-49
2022/12/01 04:31:08;;;;;;;57.35;24.55;;;;;;;-9.00;65.90;102463.50;5032491;28;20029;-57
2022/12/01 04:33:34;;;;;;;59.05;25.95;;;;;;;-9.01;65.36;102462.63;5045171;28;20033;-52
2022/12/01 04:36:00;;;;;;;57.28;25.13;;;;;;;-9.02;65.46;102457.34;5052063;28;20444;-53
2022/12/01 04:38:26;;;;;;;59.72;24.55;;;;;;;-9.08;65.47;102455.38;5052456;28;20029;-54
2022/12/01 04:40:51;;;;;;;67.25;25.83;;;;;;;-9.06;65.58;102453.72;5052356;28;20021;-51
2022/12/01 04:43:17;;;;;;;57.05;25.83;;;;;;;-9.03;65.24;102456.47;5034281;28;20112;-48
2022/12/01 04:45:42;;;;;;;58.40;25.00;;;;;;;-9.05;65.88;102459.81;5046025;28;20037;-56
2022/12/01 04:48:08;;;;;;;58.90;24.85;;;;;;;-9.04;65.63;102461.59;5041166;28;20487;-49
2022/12/01 04:50:33;;;;;;;60.50;26.73;;;;;;;-9.05;65.68;102459.81;5034835;28;20044;-51
2022/12/01 04:52:59;;;;;;;57.80;23.65;;;;;;;-9.00;65.58;102460.91;5032420;28;20049;-53
2022/12/01 04:55:24;;;;;;;64.57;25.52;;;;;;;-8.99;65.29;102460.06;5032423;28;20036;-52
2022/12/01 04:57:50;;;;;;;59.05;25.33;;;;;;;-8.97;65.76;102458.44;5032347;28;20356;-50
2022/12/01 05:00:17;;;;;;;61.08;25.40;;;;;;;-8.99;65.59;102460.06;5046167;28;20055;-51
2022/12/01 05:02:43;;;;;;;59.50;25.25;;;;;;;-9.05;65.89;102455.50;5052414;28;20032;-50
2022/12/01 05:05:13;;;;;;;58.78;26.20;;;;;;;-9.10;65.99;102436.25;5052575;28;20033;-50
2022/12/01 05:07:39;;;;;;;63.75;25.58;;;;;;;-8.90;65.82;102460.50;5036372;28;20121;-50
2022/12/01 05:10:05;;;;;;;59.22;25.15;;;;;;;-8.92;65.12;102456.03;5032465;28;20036;-52
2022/12/01 05:12:30;;;;;;;60.90;24.48;;;;;;;-8.89;65.62;102466.56;5032478;28;20026;-52
2022/12/01 05:14:56;;;;;;;64.28;26.48;;;;;;;-8.85;65.26;102465.84;5031234;28;20060;-52
2022/12/01 05:17:21;;;;;;;62.78;26.17;;;;;;;-8.82;65.52;102472.06;5032148;28;20033;-51
2022/12/01 05:22:31;;;;;;;64.90;26.15;;;;;;;-8.74;65.19;102466.31;5031944;28;20573;-51
2022/12/01 05:24:56;;;;;;;60.55;26.27;;;;;;;-8.82;64.89;102464.28;5032917;28;20455;-51
2022/12/01 05:27:22;;;;;;;63.90;25.88;;;;;;;-8.71;65.17;102476.81;5032439;28;20516;-52
2022/12/01 05:29:47;;;;;;;66.53;26.65;;;;;;;-8.66;65.13;102470.13;5047919;28;20094;-50
2022/12/01 05:32:12;;;;;;;61.83;24.08;;;;;;;-8.60;64.64;102469.47;5054613;28;20029;-51
2022/12/01 05:34:38;;;;;;;61.47;24.80;;;;;;;-8.54;65.06;102481.00;5055873;28;20029;-50
2022/12/01 05:37:04;;;;;;;59.33;24.75;;;;;;;-8.54;64.84;102475.81;5053457;28;20486;-52
2022/12/01 05:39:29;;;;;;;59.17;24.02;;;;;;;-8.53;64.84;102474.13;5054729;28;20029;-51
2022/12/01 05:41:55;;;;;;;57.10;24.95;;;;;;;-8.45;64.78;102479.56;5049430;28;20029;-51
2022/12/01 05:44:20;;;;;;;64.57;25.52;;;;;;;-8.40;64.72;102475.47;5035420;28;20030;-51
2022/12/01 05:46:46;;;;;;;61.20;23.75;;;;;;;-8.30;64.12;102476.72;5035159;28;20057;-55
2022/12/01 05:49:11;;;;;;;58.40;25.55;;;;;;;-8.28;64.59;102475.94;5035643;28;20056;-49
2022/12/01 05:51:37;;;;;;;61.88;25.88;;;;;;;-8.19;64.18;102484.97;5035441;28;20567;-50
2022/12/01 05:54:02;;;;;;;62.17;24.92;;;;;;;-8.12;64.09;102492.16;5035298;28;20312;-55
2022/12/01 05:56:28;;;;;;;62.95;24.50;;;;;;;-8.03;64.13;102492.50;5035139;28;20301;-52
2022/12/01 05:58:53;;;;;;;56.75;23.60;;;;;;;-7.97;63.53;102489.28;5036381;28;20033;-51
2022/12/01 06:01:18;;;;;;;56.55;23.67;;;;;;;-8.01;63.59;102462.25;5052709;28;20069;-55
2022/12/01 06:03:44;;;;;;;54.75;23.60;;;;;;;-7.75;63.32;102485.78;5043672;28;20043;-51
2022/12/01 06:06:09;;;;;;;56.03;22.98;;;;;;;-7.76;63.31;102462.31;5055113;28;20052;-50
2022/12/01 06:08:35;;;;;;;52.97;23.27;;;;;;;-7.43;63.02;102493.91;5055187;28;20090;-51
2022/12/01 06:11:00;;;;;;;53.03;22.17;;;;;;;-7.32;62.64;102490.81;5054143;28;20033;-53
2022/12/01 06:13:26;;;;;;;49.85;24.85;;;;;;;-7.14;62.29;102507.09;5054852;28;20063;-53
2022/12/01 06:15:58;;;;;;;56.53;22.02;;;;;;;-7.00;62.08;102507.59;5054850;28;20124;-55
2022/12/01 06:18:25;;;;;;;48.92;23.27;;;;;;;-6.83;61.60;102494.28;5038640;28;20037;-53
2022/12/01 06:20:51;;;;;;;52.20;22.98;;;;;;;-6.57;61.17;102499.50;5044422;28;20033;-53
2022/12/01 06:23:16;;;;;;;54.25;23.60;;;;;;;-6.40;60.67;102484.41;5042466;28;20112;-53
2022/12/01 06:25:42;;;;;;;53.15;23.80;;;;;;;-6.17;59.37;102499.91;5042394;28;20474;-50
2022/12/01 06:28:08;;;;;;;54.15;24.45;;;;;;;-6.09;59.22;102499.31;5039235;28;20095;-53
2022/12/01 06:30:33;;;;;;;50.88;23.27;;;;;;;-5.98;59.15;102491.78;5049337;28;20499;-51
2022/12/01 06:32:59;;;;;;;52.80;23.52;;;;;;;-5.78;58.97;102499.34;5034118;28;20479;-56
2022/12/01 06:35:24;;;;;;;60.22;24.88;;;;;;;-5.58;58.25;102506.88;5042480;28;20039;-54
2022/12/01 06:37:52;;;;;;;58.03;25.00;;;;;;;-5.25;57.85;102509.56;5053777;28;20112;-51
2022/12/01 06:40:18;;;;;;;55.60;24.15;;;;;;;-4.84;56.60;102498.47;5053765;28;20021;-56
2022/12/01 06:42:43;;;;;;;61.05;24.63;;;;;;;-4.44;55.45;102508.19;5043782;28;20037;-51
2022/12/01 06:45:09;;;;;;;54.70;24.02;;;;;;;-4.15;54.84;102501.06;5033652;28;20041;-51
2022/12/01 06:47:35;;;;;;;55.55;23.83;;;;;;;-3.92;53.70;102505.97;5033909;28;20148;-52
2022/12/01 06:50:01;;;;;;;52.67;25.33;;;;;;;-3.71;53.35;102500.31;5037711;28;20033;-50
2022/12/01 06:52:28;;;;;;;57.45;24.88;;;;;;;-3.59;53.48;102512.78;5034706;28;20033;-49
2022/12/01 06:54:54;;;;;;;61.00;26.08;;;;;;;-3.56;52.63;102491.88;5042960;28;20029;-53
2022/12/01 06:57:19;;;;;;;60.55;25.30;;;;;;;-3.42;52.30;102500.03;5053948;28;20370;-57
2022/12/01 06:59:44;;;;;;;59.05;25.95;;;;;;;-3.29;51.76;102495.94;5053504;28;20060;-51
2022/12/01 07:02:12;;;;;;;56.55;23.73;;;;;;;-3.17;51.15;102485.72;5053929;28;20037;-51
2022/12/01 07:04:38;;;;;;;59.13;24.58;;;;;;;-2.99;50.94;102486.91;5045883;28;20365;-57
2022/12/01 07:07:04;;;;;;;54.67;23.75;;;;;;;-2.79;51.27;102487.28;5042377;28;20063;-57
2022/12/01 07:09:30;;;;;;;52.58;23.92;;;;;;;-2.59;50.59;102489.38;5052861;28;20029;-53
2022/12/01 07:11:55;;;;;;;56.55;24.48;;;;;;;-2.32;49.96;102482.81;5052476;28;20047;-52
2022/12/01 07:14:23;;;;;;;60.22;24.63;;;;;;;-1.93;49.10;102480.75;5052226;28;20025;-54
2022/12/01 07:16:49;;;;;;;51.17;25.05;;;;;;;-1.54;47.54;102484.78;5043512;28;20060;-56
2022/12/01 07:19:15;;;;;;;51.78;24.02;;;;;;;-1.25;46.74;102483.38;5036783;28;20061;-54
2022/12/01 07:21:40;;;;;;;50.90;24.67;;;;;;;-1.24;46.41;102483.41;5052892;28;20492;-55
2022/12/01 07:24:06;;;;;;;52.28;24.55;;;;;;;-1.52;46.50;102466.41;5052808;28;20059;-56
2022/12/01 07:26:32;;;;;;;55.75;25.42;;;;;;;-1.76;46.51;102484.50;5052871;28;20103;-57
2022/12/01 07:28:57;;;;;;;57.05;25.52;;;;;;;-2.02;47.11;102486.75;5051201;28;20048;-57
2022/12/01 07:31:23;;;;;;;52.60;25.25;;;;;;;-2.29;48.42;102482.84;5051425;28;20029;-54
2022/12/01 07:33:48;;;;;;;53.38;25.27;;;;;;;-2.46;49.06;102491.31;5036627;28;20415;-56
2022/12/01 07:36:14;;;;;;;60.50;25.80;;;;;;;-2.63;48.98;102490.19;5046293;28;20052;-55
2022/12/01 07:38:40;;;;;;;57.45;25.95;;;;;;;-2.73;49.76;102491.75;5041290;28;20040;-58
2022/12/01 07:41:15;;;;;;;53.78;26.30;;;;;;;-2.81;49.64;102490.72;5045092;28;20033;-54
2022/12/01 07:43:41;;;;;;;52.58;25.02;;;;;;;-2.92;49.60;102486.16;5052572;28;20442;-54
2022/12/01 07:46:15;;;;;;;52.20;25.00;;;;;;;-2.89;50.32;102496.72;5036174;28;20518;-55
2022/12/01 07:48:41;;;;;;;56.72;23.90;;;;;;;-2.90;50.15;102494.94;5045260;28;20079;-53
2022/12/01 07:51:08;;;;;;;58.83;26.17;;;;;;;-2.91;50.03;102489.66;5038570;28;20770;-58
2022/12/01 07:53:35;;;;;;;61.50;26.48;;;;;;;-2.92;50.37;102491.41;5031394;28;20037;-57
2022/12/01 07:56:00;;;;;;;59.80;25.88;;;;;;;-2.92;49.71;102487.88;5032545;28;20037;-54
2022/12/01 07:58:26;;;;;;;56.88;26.00;;;;;;;-2.84;49.43;102496.81;5043327;28;20490;-55
2022/12/01 08:00:53;;;;;;;58.80;25.30;;;;;;;-2.85;49.42;102484.53;5032217;28;20298;-59
2022/12/01 08:03:18;;;;;;;58.75;27.27;;;;;;;-2.75;49.72;102491.72;5032619;28;20025;-55
2022/12/01 08:05:44;;;;;;;59.42;26.60;;;;;;;-2.72;49.78;102493.50;5045841;28;20033;-54
2022/12/01 08:08:10;;;;;;;66.95;28.13;;;;;;;-2.64;49.60;102496.28;5032590;28;20036;-54
2022/12/01 08:10:36;;;;;;;67.13;27.75;;;;;;;-2.66;49.12;102484.84;5032104;28;20037;-56
2022/12/01 08:13:02;;;;;;;65.50;28.33;;;;;;;-2.62;49.24;102499.81;5032819;28;20120;-59
2022/12/01 08:15:27;;;;;;;67.40;27.75;;;;;;;-2.70;49.81;102470.81;5032270;28;20041;-57
2022/12/01 08:17:52;;;;;;;71.80;30.17;;;;;;;-2.51;48.99;102482.50;5031834;28;20116;-56
2022/12/01 08:20:20;;;;;;;66.65;28.73;;;;;;;-2.40;48.47;102494.94;5031216;28;20040;-57
2022/12/01 08:22:45;;;;;;;68.68;29.65;;;;;;;-2.38;48.73;102486.22;5032313;28;20333;-55
2022/12/01 08:25:11;;;;;;;69.00;29.55;;;;;;;-2.30;49.15;102488.97;5032729;28;20159;-56
2022/12/01 08:27:36;;;;;;;57.97;28.70;;;;;;;-2.35;49.04;102488.88;5049400;28;20036;-55
2022/12/01 08:30:02;;;;;;;63.20;28.73;;;;;;;-2.39;49.12;102484.44;5052308;28;20424;-56
2022/12/01 08:32:29;;;;;;;68.57;29.30;;;;;;;-2.47;49.04;102489.56;5042383;28;20094;-57
2022/12/01 08:34:55;;;;;;;69.70;30.20;;;;;;;-2.57;48.93;102484.13;5051386;28;20456;-58
2022/12/01 08:37:20;;;;;;;67.30;29.83;;;;;;;-2.82;49.12;102450.50;5040221;28;20431;-53
2022/12/01 08:39:46;;;;;;;74.72;31.65;;;;;;;-2.72;49.35;102487.38;5031787;28;20087;-56
2022/12/01 08:42:11;;;;;;;69.13;30.77;;;;;;;-2.85;49.59;102491.50;5043478;28;20122;-58
2022/12/01 08:44:37;;;;;;;68.40;31.27;;;;;;;-2.88;49.57;102487.13;5045255;28;20307;-57
2022/12/01 08:47:02;;;;;;;68.07;29.40;;;;;;;-2.94;49.15;102487.88;5042308;28;20079;-59
2022/12/01 08:49:28;;;;;;;76.30;30.20;;;;;;;-2.98;50.13;102482.53;5052780;28;20125;-55
2022/12/01 08:51:55;;;;;;;71.82;31.98;;;;;;;-2.86;50.62;102490.66;5054929;28;20033;-60
2022/12/01 08:54:21;;;;;;;68.45;30.67;;;;;;;-2.74;49.49;102496.09;5034547;28;20456;-55
2022/12/01 08:56:46;;;;;;;66.30;31.13;;;;;;;-2.84;49.18;102460.09;5032845;28;20116;-56
2022/12/01 08:59:12;;;;;;;75.03;31.00;;;;;;;-2.74;49.22;102461.13;5039967;28;20417;-52
2022/12/01 09:01:52;;;;;;;72.13;31.75;;;;;;;-2.68;48.87;102468.19;5044730;28;20135;-55
2022/12/01 09:04:25;;;;;;;72.88;30.85;;;;;;;-2.50;48.97;102475.53;5042274;28;20112;-57
2022/12/01 09:06:53;;;;;;;65.03;30.75;;;;;;;-2.57;48.90;102481.50;5035035;28;20029;-56
2022/12/01 09:09:21;;;;;;;78.07;32.35;;;;;;;-2.64;49.32;102470.06;5035876;28;20060;-56
2022/12/01 09:11:47;;;;;;;68.22;32.35;;;;;;;-2.92;49.64;102432.84;5039934;28;20065;-53
2022/12/01 09:14:14;;;;;;;86.20;34.13;;;;;;;-2.79;48.83;102465.41;5054327;28;20467;-55
2022/12/01 09:16:41;;;;;;;71.35;33.75;;;;;;;-2.88;49.43;102471.38;5043540;28;20026;-55
2022/12/01 09:19:07;;;;;;;75.65;33.33;;;;;;;-3.00;49.42;102451.06;5037314;28;20531;-53
2022/12/01 09:21:35;;;;;;;78.60;33.30;;;;;;;-3.01;49.72;102456.28;5054314;28;20108;-55
2022/12/01 09:24:03;;;;;;;78.93;33.70;;;;;;;-3.05;49.88;102453.59;5054424;28;20511;-51
2022/12/01 09:26:29;;;;;;;79.13;34.28;;;;;;;-3.00;49.67;102476.38;5044893;28;20043;-56
2022/12/01 09:29:00;;;;;;;76.53;33.40;;;;;;;-2.98;50.29;102462.47;5043344;28;20367;-56
2022/12/01 09:31:27;;;;;;;79.53;33.65;;;;;;;-2.92;50.30;102461.69;5035529;28;20078;-53
2022/12/01 09:34:14;;;;;;;78.95;33.83;;;;;;;-2.81;50.31;102462.75;5035822;28;20047;-52
2022/12/01 09:36:39;;;;;;;79.25;33.67;;;;;;;-2.86;49.56;102460.91;5037308;28;20120;-54
2022/12/01 09:39:06;;;;;;;77.95;32.97;;;;;;;-2.95;49.87;102445.91;5035260;28;20415;-54
2022/12/01 09:41:38;;;;;;;78.10;33.67;;;;;;;-2.89;49.88;102457.38;5040034;28;20029;-54
2022/12/01 09:44:12;;;;;;;76.78;34.95;;;;;;;-2.83;50.31;102451.38;5036386;28;20038;-53
2022/12/01 09:47:07;;;;;;;83.75;34.08;;;;;;;-2.84;49.76;102449.59;5049948;28;20056;-54
2022/12/01 09:49:48;;;;;;;76.75;33.60;;;;;;;-2.84;50.08;102459.19;5043725;28;20519;-55
2022/12/01 09:52:17;;;;;;;82.57;34.13;;;;;;;-2.92;49.91;102459.94;5043682;28;20028;-55
2022/12/01 09:54:43;;;;;;;81.75;34.75;;;;;;;-2.87;49.75;102465.28;5044473;28;20079;-51
2022/12/01 09:57:34;;;;;;;92.95;36.78;;;;;;;-2.79;50.12;102465.41;5036580;28;20053;-51
2022/12/01 10:00:05;;;;;;;91.43;35.38;;;;;;;-2.85;49.65;102466.19;5034259;28;20132;-53
2022/12/01 10:02:48;;;;;;;77.65;33.38;;;;;;;-3.03;49.73;102454.50;5034698;28;20026;-51
2022/12/01 10:05:21;;;;;;;80.03;34.40;;;;;;;-3.04;50.52;102465.84;5034784;28;20032;-51
2022/12/01 10:07:48;;;;;;;80.93;35.63;;;;;;;-3.14;50.32;102452.53;5050620;28;20089;-54
2022/12/01 10:10:22;;;;;;;80.22;35.63;;;;;;;-3.23;50.28;102458.50;5053530;28;20498;-53
2022/12/01 10:12:48;;;;;;;79.97;35.05;;;;;;;-3.29;50.77;102464.50;5048734;28;20025;-52
2022/12/01 10:15:41;;;;;;;75.95;32.70;;;;;;;-3.26;51.54;102474.16;5048565;28;20086;-54
2022/12/01 10:18:13;;;;;;;86.88;36.08;;;;;;;-3.40;50.70;102466.88;5053199;28;20399;-54
2022/12/01 10:20:39;;;;;;;80.50;33.70;;;;;;;-3.49;51.35;102469.34;5053845;28;20051;-55
2022/12/01 10:23:14;;;;;;;76.90;33.58;;;;;;;-3.53;51.25;102467.50;5034600;28;20045;-54
2022/12/01 10:26:02;;;;;;;86.10;36.28;;;;;;;-3.54;51.66;102450.03;5034180;28;20112;-54
2022/12/01 10:28:59;;;;;;;73.35;33.92;;;;;;;-3.43;51.70;102451.13;5036490;28;20064;-55
2022/12/01 10:31:34;;;;;;;82.63;33.80;;;;;;;-3.29;51.40;102454.00;5034145;28;20037;-54
2022/12/01 10:34:28;;;;;;;58.35;25.55;;;;;;;-3.03;50.92;102457.13;5034375;28;20079;-55
2022/12/01 10:36:54;;;;;;;78.40;34.25;;;;;;;-2.95;50.56;102453.75;5036376;28;20041;-57
2022/12/01 10:39:46;;;;;;;77.47;35.90;;;;;;;-2.81;50.67;102454.00;5044372;28;20076;-54
2022/12/01 10:42:36;;;;;;;72.63;34.20;;;;;;;-2.73;50.04;102444.53;5052563;28;20049;-58
2022/12/01 10:45:08;;;;;;;77.43;33.53;;;;;;;-2.72;50.19;102442.78;5054042;28;20068;-57
2022/12/01 10:47:34;;;;;;;81.53;34.45;;;;;;;-2.70;49.76;102441.06;5052490;28;20045;-57
2022/12/01 10:50:02;;;;;;;70.38;32.72;;;;;;;-2.75;49.44;102436.63;5035148;28;20428;-57
2022/12/01 10:52:38;;;;;;;74.88;34.20;;;;;;;-2.58;49.35;102445.63;5043924;28;20025;-61
2022/12/01 10:55:22;;;;;;;76.32;34.83;;;;;;;-2.54;49.37;102436.97;5036134;28;20042;-55
2022/12/01 10:57:49;;;;;;;86.32;34.72;;;;;;;-2.56;49.13;102434.31;5040692;28;20530;-56
2022/12/01 11:00:35;;;;;;;73.90;33.38;;;;;;;-2.46;49.61;102430.13;5053369;28;20114;-55
2022/12/01 11:03:02;;;;;;;75.70;34.65;;;;;;;-2.43;48.63;102438.03;5052364;28;20155;-53
2022/12/01 11:05:39;;;;;;;73.20;32.63;;;;;;;-2.48;49.08;102439.69;5053310;28;20029;-52
2022/12/01 11:08:05;;;;;;;66.50;32.85;;;;;;;-2.58;49.13;102443.91;5052731;28;20041;-55
2022/12/01 11:10:32;;;;;;;71.10;33.60;;;;;;;-2.69;49.83;102443.75;5053538;28;20471;-52
2022/12/01 11:13:03;;;;;;;75.43;33.42;;;;;;;-2.77;49.81;102447.97;5042650;28;20113;-55
2022/12/01 11:15:53;;;;;;;68.63;33.67;;;;;;;-2.73;49.73;102439.31;5033596;28;20051;-55
2022/12/01 11:18:21;;;;;;;71.68;32.90;;;;;;;-2.85;49.71;102442.59;5040722;28;20110;-56
2022/12/01 11:20:47;;;;;;;75.03;32.90;;;;;;;-2.91;49.84;102445.09;5050703;28;20336;-57
2022/12/01 11:23:23;;;;;;;74.97;34.25;;;;;;;-2.95;50.29;102432.78;5046436;28;20033;-54
2022/12/01 11:26:16;;;;;;;74.60;33.10;;;;;;;-2.93;50.32;102431.97;5047428;28;20029;-56
2022/12/01 11:28:57;;;;;;;79.22;34.60;;;;;;;-2.93;50.28;102437.22;5043358;28;20961;-56
2022/12/01 11:31:37;;;;;;;71.40;33.60;;;;;;;-2.93;50.83;102436.31;5044860;28;20033;-55
2022/12/01 11:34:03;;;;;;;68.05;33.17;;;;;;;-3.06;49.95;102436.09;5042840;28;20033;-57